Austinville, Pennsylvania
Current Conditions -  °F | °C
As of 8:53 AM on Saturday 25 Oct 2014 (Local Time) from KELM Reporting Station
Overcast Overcast  
Wind Chill:   Ceiling: 4200
Heat Index:   Visibility: 10mi
Dew Point:   Wind: 5mph
Humidity: 80%   Direction: 230°SW
Pressure: 29.87"   Gusts: NA
Location:  41.8495°N, 76.7925°W
Report Text: KELM 251253Z 23004KT 10SM OVC042 07/04 A2987 RMK AO2 SLP118 T00720039
Loading
Personal Weather Stations






























Interactive Weather Map
Tropical Storm Tracking
New forecast layout! Learn more

10-Day Weather Forecast

Advertisements
Track Severe Weather on mobile